createdAt,value
2018-12-29T00:00:48.352Z,38.90
2018-12-29T00:03:20.675Z,38.70
2018-12-29T00:05:52.076Z,40.03
2018-12-29T00:08:23.764Z,39.15
2018-12-29T00:10:55.210Z,37.30
2018-12-29T00:13:26.743Z,38.92
2018-12-29T00:16:01.016Z,42.98
2018-12-29T00:18:32.670Z,42.48
2018-12-29T00:21:04.073Z,41.45
2018-12-29T00:23:35.602Z,38.88
2018-12-29T00:26:06.991Z,33.10
2018-12-29T00:28:38.729Z,40.48
2018-12-29T00:31:10.340Z,38.10
2018-12-29T00:33:41.820Z,30.00
2018-12-29T00:36:13.311Z,38.85
2018-12-29T00:38:44.713Z,32.35
2018-12-29T00:41:16.032Z,34.53
2018-12-29T00:43:47.568Z,36.13
2018-12-29T00:46:18.932Z,35.10
2018-12-29T00:48:50.509Z,35.78
2018-12-29T00:51:22.043Z,36.70
2018-12-29T00:53:53.519Z,35.43
2018-12-29T00:56:24.989Z,36.25
2018-12-29T00:58:56.524Z,41.68
2018-12-29T01:01:27.982Z,35.25
2018-12-29T01:04:01.051Z,38.02
2018-12-29T01:06:32.507Z,36.45
2018-12-29T01:09:04.907Z,33.98
2018-12-29T01:11:36.441Z,35.30
2018-12-29T01:14:07.898Z,34.30
2018-12-29T01:16:39.354Z,42.73
2018-12-29T01:19:10.743Z,38.45
2018-12-29T01:21:42.082Z,39.95
2018-12-29T01:24:13.529Z,39.35
2018-12-29T01:26:45.114Z,33.92
2018-12-29T01:29:16.623Z,34.38
2018-12-29T01:31:48.044Z,39.58
2018-12-29T01:34:19.660Z,36.80
2018-12-29T01:36:51.094Z,36.58
2018-12-29T01:39:22.579Z,35.35
2018-12-29T01:41:54.119Z,38.65
2018-12-29T01:44:27.640Z,31.17
2018-12-29T01:47:00.333Z,36.75
2018-12-29T01:49:31.852Z,32.42
2018-12-29T01:52:03.309Z,42.65
2018-12-29T01:54:35.778Z,37.40
2018-12-29T01:57:07.217Z,36.88
2018-12-29T01:59:38.635Z,34.15
2018-12-29T02:02:10.228Z,30.80
2018-12-29T02:04:41.651Z,36.28
2018-12-29T02:07:13.175Z,37.05
2018-12-29T02:09:44.623Z,31.10
2018-12-29T02:12:16.076Z,33.20
2018-12-29T02:14:47.436Z,36.15
2018-12-29T02:17:20.142Z,35.70
2018-12-29T02:19:51.435Z,34.90
2018-12-29T02:22:22.950Z,37.17
2018-12-29T02:24:54.190Z,35.20
2018-12-29T02:27:25.631Z,39.58
2018-12-29T02:29:56.973Z,34.85
2018-12-29T02:32:28.421Z,37.30
2018-12-29T02:34:59.859Z,41.77
2018-12-29T02:37:31.371Z,40.50
2018-12-29T02:40:02.857Z,43.33
2018-12-29T02:42:34.288Z,41.88
2018-12-29T02:45:06.126Z,40.85
2018-12-29T02:47:37.601Z,39.48
2018-12-29T02:50:09.065Z,39.35
2018-12-29T02:52:40.500Z,49.33
2018-12-29T02:55:11.978Z,38.55
2018-12-29T02:57:43.460Z,41.83
2018-12-29T03:00:14.797Z,41.63
2018-12-29T03:02:46.224Z,45.60
2018-12-29T03:05:17.599Z,37.88
2018-12-29T03:07:49.268Z,41.02
2018-12-29T03:10:20.980Z,42.17
2018-12-29T03:12:52.351Z,44.25
2018-12-29T03:15:23.864Z,37.42
2018-12-29T03:17:55.356Z,36.25
2018-12-29T03:20:26.799Z,35.40
2018-12-29T03:22:58.301Z,36.03
2018-12-29T03:25:30.035Z,36.58
2018-12-29T03:28:01.462Z,38.17
2018-12-29T03:33:37.002Z,36.42
2018-12-29T03:36:08.748Z,38.53
2018-12-29T03:38:40.114Z,37.60
2018-12-29T03:41:11.538Z,37.05
2018-12-29T03:43:43.019Z,35.03
2018-12-29T03:46:14.436Z,37.95
2018-12-29T03:48:45.896Z,33.35
2018-12-29T03:51:17.423Z,36.65
2018-12-29T03:53:48.775Z,32.75
2018-12-29T03:56:20.216Z,35.33
2018-12-29T03:58:51.667Z,33.75
2018-12-29T04:01:23.137Z,39.10
2018-12-29T04:03:54.501Z,39.67
2018-12-29T04:06:25.891Z,35.23
2018-12-29T04:09:35.316Z,37.00
2018-12-29T04:12:20.163Z,38.73
2018-12-29T04:14:51.626Z,37.17
2018-12-29T04:17:23.078Z,37.03
2018-12-29T04:19:54.420Z,36.05
2018-12-29T04:22:25.920Z,37.42
2018-12-29T04:24:57.380Z,42.30
2018-12-29T04:27:28.788Z,40.67
2018-12-29T04:30:00.202Z,40.28
2018-12-29T04:32:31.623Z,39.10
2018-12-29T04:35:03.078Z,40.33
2018-12-29T04:37:34.527Z,40.98
2018-12-29T04:40:06.359Z,39.85
2018-12-29T04:42:37.772Z,36.48
2018-12-29T04:45:09.192Z,35.75
2018-12-29T04:47:40.759Z,38.65
2018-12-29T04:50:12.094Z,38.85
2018-12-29T04:52:43.592Z,37.80
2018-12-29T04:55:15.047Z,36.58
2018-12-29T04:57:46.652Z,42.05
2018-12-29T05:00:18.127Z,32.40
2018-12-29T05:02:49.616Z,41.28
2018-12-29T05:05:21.142Z,40.75
2018-12-29T05:07:52.574Z,41.37
2018-12-29T05:10:24.233Z,35.70
2018-12-29T05:12:55.712Z,40.05
2018-12-29T05:15:27.140Z,43.33
2018-12-29T05:17:58.667Z,38.17
2018-12-29T05:20:30.202Z,33.65
2018-12-29T05:23:01.675Z,38.10
2018-12-29T05:25:33.050Z,33.95
2018-12-29T05:28:04.477Z,35.28
2018-12-29T05:30:35.898Z,40.10
2018-12-29T05:33:07.291Z,42.55
2018-12-29T05:35:38.792Z,41.05
2018-12-29T05:38:10.243Z,37.65
2018-12-29T05:40:41.776Z,34.85
2018-12-29T05:43:13.157Z,35.03
2018-12-29T05:45:44.651Z,42.00
2018-12-29T05:48:15.969Z,40.55
2018-12-29T05:50:47.468Z,34.83
2018-12-29T05:53:18.953Z,40.92
2018-12-29T05:55:50.397Z,33.08
2018-12-29T05:58:21.873Z,39.00
2018-12-29T06:00:53.160Z,38.55
2018-12-29T06:03:24.679Z,41.80
2018-12-29T06:05:56.116Z,38.83
2018-12-29T06:08:27.459Z,38.70
2018-12-29T06:10:59.014Z,50.58
2018-12-29T06:13:30.466Z,35.28
2018-12-29T06:16:01.907Z,36.93
2018-12-29T06:18:33.360Z,40.03
2018-12-29T06:21:05.106Z,41.20
2018-12-29T06:23:36.456Z,39.48
2018-12-29T06:26:08.013Z,41.20
2018-12-29T06:28:39.562Z,37.45
2018-12-29T06:31:11.029Z,43.68
2018-12-29T06:33:42.483Z,36.33
2018-12-29T06:36:14.205Z,42.90
2018-12-29T06:38:45.747Z,38.13
2018-12-29T06:41:17.339Z,39.75
2018-12-29T06:43:48.910Z,35.95
2018-12-29T06:46:20.393Z,40.33
2018-12-29T06:48:51.857Z,38.75
2018-12-29T06:51:23.197Z,33.67
2018-12-29T06:53:54.681Z,38.53
2018-12-29T06:56:25.988Z,37.33
2018-12-29T06:58:57.275Z,35.43
2018-12-29T07:01:28.644Z,36.08
2018-12-29T07:04:00.013Z,36.93
2018-12-29T07:06:31.367Z,33.73
2018-12-29T07:09:02.630Z,34.85
2018-12-29T07:11:34.187Z,40.92
2018-12-29T07:14:05.625Z,40.23
2018-12-29T07:16:42.261Z,33.05
2018-12-29T07:19:10.564Z,32.95
2018-12-29T07:21:42.079Z,40.35
2018-12-29T07:24:13.526Z,38.45
2018-12-29T07:26:45.056Z,46.30
2018-12-29T07:29:16.619Z,37.78
2018-12-29T07:31:48.140Z,32.75
2018-12-29T07:34:19.616Z,30.77
2018-12-29T07:36:51.197Z,38.33
2018-12-29T07:39:22.640Z,37.20
2018-12-29T07:41:54.109Z,35.85
2018-12-29T07:44:25.521Z,35.50
2018-12-29T07:46:56.986Z,36.85
2018-12-29T07:49:28.413Z,41.02
2018-12-29T07:51:59.894Z,37.98
2018-12-29T07:54:31.342Z,36.77
2018-12-29T07:57:02.732Z,45.03
2018-12-29T07:59:34.240Z,34.35
2018-12-29T08:02:05.897Z,38.05
2018-12-29T08:04:37.602Z,35.03
2018-12-29T08:07:09.458Z,34.08
2018-12-29T08:09:42.535Z,32.17
2018-12-29T08:12:14.661Z,41.02
2018-12-29T08:14:48.607Z,37.38
2018-12-29T08:17:23.080Z,37.28
2018-12-29T08:20:06.025Z,36.30
2018-12-29T08:22:39.167Z,40.08
2018-12-29T08:25:11.033Z,34.83
2018-12-29T08:27:42.489Z,32.28
2018-12-29T08:30:13.986Z,43.83
2018-12-29T08:32:45.471Z,31.37
2018-12-29T08:35:17.041Z,35.30
2018-12-29T08:37:48.600Z,37.63
2018-12-29T08:40:20.061Z,37.40
2018-12-29T08:42:52.541Z,36.25
2018-12-29T08:45:23.979Z,41.45
2018-12-29T08:47:55.467Z,32.60
2018-12-29T08:50:26.825Z,35.35
2018-12-29T08:52:58.228Z,37.93
2018-12-29T08:55:30.074Z,35.30
2018-12-29T08:58:01.508Z,34.70
2018-12-29T09:00:32.836Z,33.30
2018-12-29T09:03:04.294Z,33.23
2018-12-29T09:05:35.887Z,32.13
2018-12-29T09:08:08.480Z,36.83
2018-12-29T09:10:40.922Z,31.30
2018-12-29T09:13:12.366Z,41.92
2018-12-29T09:15:43.745Z,34.38
2018-12-29T09:18:15.233Z,33.75
2018-12-29T09:20:46.768Z,37.42
2018-12-29T09:23:18.219Z,35.83
2018-12-29T09:25:50.203Z,39.30
2018-12-29T09:28:21.731Z,37.65
2018-12-29T09:30:53.237Z,36.20
2018-12-29T09:33:24.681Z,35.00
2018-12-29T09:35:56.387Z,34.78
2018-12-29T09:38:28.947Z,42.20
2018-12-29T09:41:00.427Z,34.25
2018-12-29T09:43:31.839Z,41.58
2018-12-29T09:46:03.350Z,38.75
2018-12-29T09:48:34.896Z,41.55
2018-12-29T09:51:06.792Z,39.65
2018-12-29T09:53:38.130Z,45.85
2018-12-29T09:56:13.054Z,43.52
2018-12-29T09:58:47.717Z,44.38
2018-12-29T10:01:22.900Z,41.68
2018-12-29T10:03:55.814Z,40.67
2018-12-29T10:06:28.113Z,41.55
2018-12-29T10:08:59.612Z,42.58
2018-12-29T10:11:33.735Z,40.45
2018-12-29T10:14:06.429Z,51.80
2018-12-29T10:16:43.431Z,47.45
2018-12-29T10:19:21.337Z,44.65
2018-12-29T10:21:54.442Z,44.13
2018-12-29T10:24:28.609Z,48.13
2018-12-29T10:27:03.204Z,42.33
2018-12-29T10:29:35.577Z,40.60
2018-12-29T10:32:09.544Z,47.75
2018-12-29T10:34:44.608Z,41.53
2018-12-29T10:37:17.533Z,48.63
2018-12-29T10:39:53.473Z,48.05
2018-12-29T10:42:25.244Z,48.95
2018-12-29T10:44:56.750Z,51.05
2018-12-29T10:47:34.345Z,47.60
2018-12-29T10:50:01.660Z,53.02
2018-12-29T10:52:33.042Z,46.88
2018-12-29T10:55:04.547Z,55.78
2018-12-29T10:57:35.924Z,49.30
2018-12-29T11:00:09.552Z,49.15
2018-12-29T11:02:41.387Z,53.52
2018-12-29T11:05:12.872Z,50.38
2018-12-29T11:07:44.319Z,53.08
2018-12-29T11:10:15.891Z,58.92
2018-12-29T11:12:48.158Z,52.80
2018-12-29T11:15:20.093Z,49.38
2018-12-29T11:17:52.308Z,53.50
2018-12-29T11:20:24.789Z,47.90
2018-12-29T11:22:56.234Z,52.48
2018-12-29T11:25:27.680Z,57.75
2018-12-29T11:27:59.145Z,48.68
2018-12-29T11:30:30.608Z,52.93
2018-12-29T11:33:02.100Z,54.42
2018-12-29T11:35:33.454Z,49.83
2018-12-29T11:38:04.901Z,59.70
2018-12-29T11:40:36.246Z,59.10
2018-12-29T11:43:08.037Z,51.42
2018-12-29T11:45:40.588Z,52.50
2018-12-29T11:48:13.405Z,54.45
2018-12-29T11:50:44.877Z,49.75
2018-12-29T11:53:16.321Z,50.55
2018-12-29T11:55:48.178Z,46.37
2018-12-29T11:58:19.557Z,51.13
2018-12-29T12:00:50.886Z,60.98
2018-12-29T12:03:22.451Z,45.65
2018-12-29T12:05:54.116Z,51.05
2018-12-29T12:08:25.641Z,50.65
2018-12-29T12:10:57.097Z,49.93
2018-12-29T12:13:28.559Z,47.50
2018-12-29T12:16:00.077Z,49.05
2018-12-29T12:18:31.540Z,51.85
2018-12-29T12:21:02.985Z,47.90
2018-12-29T12:23:34.292Z,51.60
2018-12-29T12:26:05.727Z,48.80
2018-12-29T12:28:37.147Z,50.80
2018-12-29T12:31:08.857Z,46.95
2018-12-29T12:33:40.314Z,52.90
2018-12-29T12:36:11.779Z,44.65
2018-12-29T12:38:43.142Z,50.50
2018-12-29T12:41:14.791Z,49.65
2018-12-29T12:43:46.305Z,62.27
2018-12-29T12:46:17.898Z,52.70
2018-12-29T12:48:49.745Z,50.58
2018-12-29T12:51:21.280Z,51.15
2018-12-29T12:53:54.430Z,43.23
2018-12-29T12:56:26.096Z,49.27
2018-12-29T12:59:00.445Z,48.80
2018-12-29T13:01:31.959Z,45.23
2018-12-29T13:04:03.324Z,42.78
2018-12-29T13:06:34.733Z,47.78
2018-12-29T13:09:08.381Z,49.65
2018-12-29T13:11:39.786Z,44.60
2018-12-29T13:14:11.629Z,45.10
2018-12-29T13:16:43.432Z,45.60
2018-12-29T13:19:15.237Z,44.77
2018-12-29T13:21:47.508Z,48.08
2018-12-29T13:24:18.911Z,47.98
2018-12-29T13:26:50.318Z,46.88
2018-12-29T13:29:21.729Z,49.10
2018-12-29T13:31:53.023Z,45.88
2018-12-29T13:34:24.453Z,40.92
2018-12-29T13:36:55.903Z,43.25
2018-12-29T13:39:27.474Z,43.02
2018-12-29T13:41:58.809Z,41.15
2018-12-29T13:44:31.196Z,49.03
2018-12-29T13:47:04.039Z,39.35
2018-12-29T13:49:35.464Z,42.80
2018-12-29T13:52:06.959Z,39.40
2018-12-29T13:54:39.002Z,46.33
2018-12-29T13:57:10.663Z,40.38
2018-12-29T13:59:43.034Z,45.58
2018-12-29T14:02:14.768Z,40.40
2018-12-29T14:04:46.447Z,38.05
2018-12-29T14:07:17.877Z,39.63
2018-12-29T14:09:49.251Z,40.70
2018-12-29T14:12:20.754Z,39.40
2018-12-29T14:14:52.289Z,39.85
2018-12-29T14:17:23.753Z,37.48
2018-12-29T14:19:55.366Z,38.55
2018-12-29T14:22:26.859Z,36.80
2018-12-29T14:24:58.335Z,46.48
2018-12-29T14:27:30.396Z,44.98
2018-12-29T14:30:02.231Z,37.85
2018-12-29T14:32:33.639Z,43.20
2018-12-29T14:35:07.671Z,35.70
2018-12-29T14:37:39.365Z,37.28
2018-12-29T14:40:11.023Z,38.58
2018-12-29T14:42:42.833Z,39.85
2018-12-29T14:45:14.687Z,48.92
2018-12-29T14:47:46.727Z,36.42
2018-12-29T14:50:18.497Z,44.33
2018-12-29T14:52:50.355Z,41.10
2018-12-29T14:55:22.332Z,41.23
2018-12-29T15:01:59.408Z,40.03
2018-12-29T15:04:36.579Z,36.00
2018-12-29T15:07:34.945Z,37.60
2018-12-29T15:10:29.497Z,41.00
2018-12-29T15:13:10.543Z,35.52
2018-12-29T15:15:51.146Z,40.00
2018-12-29T15:18:43.335Z,36.42
2018-12-29T15:22:01.359Z,36.63
2018-12-29T15:24:35.043Z,31.37
2018-12-29T15:27:22.823Z,41.30
2018-12-29T15:30:10.436Z,43.42
2018-12-29T15:33:03.058Z,36.85
2018-12-29T15:36:21.538Z,37.38
2018-12-29T15:39:25.500Z,43.15
2018-12-29T15:42:14.411Z,38.55
2018-12-29T15:45:07.082Z,36.28
2018-12-29T15:48:12.368Z,46.20
2018-12-29T15:51:06.560Z,42.70
2018-12-29T15:55:01.565Z,50.40
2018-12-29T15:57:40.177Z,44.03
2018-12-29T16:00:16.099Z,43.63
2018-12-29T16:02:54.081Z,76.75
2018-12-29T16:05:29.718Z,57.45
2018-12-29T16:08:21.766Z,49.45
2018-12-29T16:10:56.051Z,40.58
2018-12-29T16:13:33.330Z,40.40
2018-12-29T16:17:32.987Z,45.60
2018-12-29T16:24:21.334Z,47.40
2018-12-29T16:27:06.179Z,51.77
2018-12-29T16:29:41.918Z,50.80
2018-12-29T16:32:25.805Z,54.08
2018-12-29T16:35:33.161Z,50.00
2018-12-29T16:38:37.967Z,52.45
2018-12-29T16:41:31.714Z,56.55
2018-12-29T16:44:33.081Z,56.25
2018-12-29T16:47:49.971Z,58.05
2018-12-29T16:51:19.948Z,52.78
2018-12-29T16:54:23.502Z,59.38
2018-12-29T16:57:55.038Z,47.73
2018-12-29T17:00:55.109Z,53.15
2018-12-29T17:04:46.697Z,55.38
2018-12-29T17:11:31.646Z,51.30
2018-12-29T17:14:08.607Z,49.30
2018-12-29T17:17:13.133Z,53.13
2018-12-29T17:20:40.375Z,52.23
2018-12-29T17:23:21.155Z,42.35
2018-12-29T17:26:31.742Z,47.73
2018-12-29T17:30:37.658Z,47.05
2018-12-29T17:33:27.693Z,45.52
2018-12-29T17:36:41.842Z,43.65
2018-12-29T17:39:20.628Z,48.48
2018-12-29T17:42:37.453Z,43.02
2018-12-29T17:45:35.534Z,41.30
2018-12-29T17:48:35.931Z,40.38
2018-12-29T17:51:22.476Z,37.00
2018-12-29T17:53:56.039Z,40.85
2018-12-29T17:56:38.754Z,43.55
2018-12-29T17:59:28.946Z,45.08
2018-12-29T18:02:41.992Z,43.68
2018-12-29T18:05:42.946Z,43.28
2018-12-29T18:09:02.538Z,45.33
2018-12-29T18:12:29.530Z,43.58
2018-12-29T18:15:30.050Z,42.17
2018-12-29T18:18:41.113Z,45.08
2018-12-29T18:21:43.055Z,43.30
2018-12-29T18:24:24.327Z,39.15
2018-12-29T18:27:20.107Z,36.80
2018-12-29T18:30:33.037Z,32.93
2018-12-29T18:33:42.236Z,30.60
2018-12-29T18:36:53.318Z,36.48
2018-12-29T18:40:01.675Z,31.90
2018-12-29T18:43:30.802Z,30.52
2018-12-29T18:46:15.810Z,28.77
2018-12-29T18:49:38.263Z,28.15
2018-12-29T18:52:32.836Z,28.30
2018-12-29T18:55:47.491Z,29.12
2018-12-29T18:58:50.958Z,31.20
2018-12-29T19:02:09.120Z,26.73
2018-12-29T19:05:09.818Z,22.15
2018-12-29T19:08:19.810Z,17.82
2018-12-29T19:14:50.587Z,14.75
2018-12-29T19:17:43.127Z,14.87
2018-12-29T19:20:56.983Z,11.30
2018-12-29T19:31:55.552Z,9.28
2018-12-29T19:35:11.135Z,9.80
2018-12-29T19:45:58.805Z,11.48
2018-12-29T19:48:59.606Z,11.85
2018-12-29T19:51:58.500Z,11.70
2018-12-29T19:54:59.970Z,8.50
2018-12-29T20:05:59.035Z,10.10
2018-12-29T20:08:47.598Z,11.50
2018-12-29T20:12:09.762Z,11.50
2018-12-29T20:15:24.504Z,13.18
2018-12-29T20:18:48.085Z,10.78
2018-12-29T20:22:40.751Z,9.90
2018-12-29T20:26:20.915Z,11.70
2018-12-29T20:44:52.364Z,43.08
2018-12-29T20:47:37.453Z,36.88
2018-12-29T20:51:11.687Z,25.97
2018-12-29T20:58:42.395Z,18.10
2018-12-29T21:02:03.671Z,13.75
2018-12-29T21:05:14.450Z,18.48
2018-12-29T21:08:52.184Z,16.97
2018-12-29T21:14:58.150Z,16.75
2018-12-29T21:18:04.984Z,15.45
2018-12-29T21:25:43.840Z,19.50
2018-12-29T21:32:58.293Z,17.57
2018-12-29T21:39:59.468Z,15.28
2018-12-29T21:43:30.237Z,14.00
2018-12-29T21:47:10.478Z,13.32
2018-12-29T21:50:25.318Z,14.40
2018-12-29T21:53:53.226Z,13.80
2018-12-29T21:56:52.646Z,14.45
2018-12-29T22:00:28.106Z,14.05
2018-12-29T22:05:00.159Z,15.58
2018-12-29T22:07:53.653Z,11.38
2018-12-29T22:15:46.666Z,13.30
2018-12-29T22:19:09.976Z,12.73
2018-12-29T22:22:51.422Z,9.75
2018-12-29T22:26:32.328Z,8.43
2018-12-29T22:29:32.482Z,7.53
2018-12-29T22:33:03.619Z,5.62
2018-12-29T22:36:33.280Z,4.03
2018-12-29T22:43:37.525Z,2.87
2018-12-29T22:54:42.094Z,3.90
2018-12-29T23:05:26.118Z,2.90
2018-12-29T23:08:56.715Z,3.35
2018-12-29T23:12:29.903Z,3.67
2018-12-29T23:16:52.000Z,5.60
2018-12-29T23:20:07.156Z,5.83
2018-12-29T23:27:35.657Z,4.28
2018-12-29T23:34:27.100Z,5.65
2018-12-29T23:38:37.280Z,7.25
2018-12-29T23:46:20.567Z,7.70
2018-12-29T23:49:38.136Z,4.70
2018-12-29T23:52:54.722Z,7.70
